Time;durP1;ratioP1;P1;durP2;ratioP2;P2;SDS_P1;SDS_P2;PMS_P1;PMS_P2;Temp;Humidity;BMP_temperature;BMP_pressure;BME280_temperature;BME280_humidity;BME280_pressure;Samples;Min_cycle;Max_cycle;Signal;HPM_P1;HPM_P2
2023/08/18 00:01:23;;;;;;;3.70;3.40;;;;;;;27.33;83.78;98624.50;5009196;27;104180;-64
2023/08/18 00:03:51;;;;;;;4.80;4.30;;;;;;;26.30;85.24;98622.06;5029845;27;102675;-65
2023/08/18 00:06:20;;;;;;;4.75;4.20;;;;;;;25.55;86.99;98623.38;5028693;27;103135;-64
2023/08/18 00:08:48;;;;;;;5.70;4.15;;;;;;;25.06;88.77;98634.50;5007906;27;103407;-64
2023/08/18 00:11:16;;;;;;;4.97;4.18;;;;;;;24.93;89.38;98622.81;5034785;27;104919;-64
2023/08/18 00:13:44;;;;;;;5.60;4.27;;;;;;;24.61;90.19;98627.06;5035044;27;103012;-65
2023/08/18 00:16:12;;;;;;;4.50;4.07;;;;;;;24.96;89.08;98623.25;5022276;27;104274;-64
2023/08/18 00:18:41;;;;;;;5.38;4.20;;;;;;;25.03;88.88;98623.28;5026696;27;104056;-64
2023/08/18 00:21:09;;;;;;;7.00;4.18;;;;;;;25.22;87.15;98617.06;5035916;27;103242;-64
2023/08/18 00:23:37;;;;;;;5.53;4.00;;;;;;;25.17;87.67;98615.00;5015208;27;103216;-64
2023/08/18 00:26:08;;;;;;;3.38;2.97;;;;;;;26.12;84.98;98609.16;5038455;27;104083;-64
2023/08/18 00:28:37;;;;;;;3.77;2.97;;;;;;;26.56;82.81;98611.13;5031161;27;103982;-64
2023/08/18 00:31:05;;;;;;;3.60;2.70;;;;;;;26.70;82.61;98601.91;5031548;27;102958;-64
2023/08/18 00:33:33;;;;;;;4.20;3.80;;;;;;;26.03;84.55;98604.16;5022198;27;102738;-65
2023/08/18 00:36:02;;;;;;;4.87;3.90;;;;;;;26.00;84.47;98612.72;5036970;27;103969;-64
2023/08/18 00:38:32;;;;;;;5.65;3.80;;;;;;;25.54;86.88;98613.59;5016766;27;104320;-64
2023/08/18 00:41:00;;;;;;;6.03;4.13;;;;;;;24.95;88.57;98620.75;5013633;27;104306;-64
2023/08/18 00:43:28;;;;;;;4.57;4.10;;;;;;;24.90;89.32;98612.44;5012717;27;102845;-64
2023/08/18 00:45:56;;;;;;;5.05;4.15;;;;;;;25.10;88.82;98602.47;5034890;27;103647;-64
2023/08/18 00:48:26;;;;;;;4.20;3.80;;;;;;;25.87;85.75;98600.03;5016713;27;104485;-64
2023/08/18 00:50:55;;;;;;;3.47;3.17;;;;;;;26.22;84.34;98603.31;5023040;27;104263;-64
2023/08/18 00:53:24;;;;;;;6.35;4.20;;;;;;;25.61;85.36;98606.31;5015451;27;102784;-64
2023/08/18 00:55:53;;;;;;;5.80;4.47;;;;;;;25.21;86.66;98604.56;5030954;27;104308;-64
2023/08/18 00:58:21;;;;;;;6.25;4.75;;;;;;;25.30;87.09;98604.19;5015733;27;103812;-64
2023/08/18 01:00:49;;;;;;;5.53;4.32;;;;;;;25.07;87.91;98603.72;5029935;27;103265;-64
2023/08/18 01:03:18;;;;;;;5.43;4.15;;;;;;;25.21;87.79;98601.88;5031014;27;102725;-64
2023/08/18 01:05:46;;;;;;;5.00;4.10;;;;;;;24.67;90.20;98599.25;5014578;27;104306;-64
2023/08/18 01:08:16;;;;;;;4.50;4.10;;;;;;;24.76;90.47;98601.53;5034393;27;103780;-64
2023/08/18 01:10:56;;;;;;;6.00;4.30;;;;;;;24.79;88.73;98601.16;5037051;27;103257;-64
2023/08/18 01:13:33;;;;;;;7.75;4.75;;;;;;;24.54;90.56;98596.47;5027331;27;102589;-64
2023/08/18 01:16:07;;;;;;;6.13;4.80;;;;;;;24.05;92.69;98596.63;5028306;27;102697;-64
2023/08/18 01:18:35;;;;;;;6.03;5.38;;;;;;;23.43;96.52;98597.44;5014502;27;104345;-64
2023/08/18 01:21:05;;;;;;;5.63;4.50;;;;;;;23.53;95.96;98597.09;5029826;27;104007;-64
2023/08/18 01:23:41;;;;;;;5.47;4.70;;;;;;;23.52;95.87;98585.47;5040106;27;103004;-64
2023/08/18 01:26:09;;;;;;;5.73;4.40;;;;;;;24.10;92.90;98594.19;5010258;27;104336;-64
2023/08/18 01:28:37;;;;;;;4.15;3.75;;;;;;;24.83;89.78;98595.38;5005494;27;104589;-64
2023/08/18 01:31:09;;;;;;;5.00;3.92;;;;;;;25.02;87.76;98589.16;5035155;27;103230;-64
2023/08/18 01:33:42;;;;;;;5.13;4.63;;;;;;;24.86;87.66;98594.97;5033437;27;102722;-64
2023/08/18 01:36:22;;;;;;;4.35;3.97;;;;;;;25.40;86.04;98592.97;5014464;27;102796;-64
2023/08/18 01:38:53;;;;;;;5.20;4.32;;;;;;;25.14;87.54;98598.34;5028962;27;103925;-63
2023/08/18 01:41:24;;;;;;;3.88;3.58;;;;;;;25.40;86.62;98589.44;5033750;27;103330;-63
2023/08/18 01:43:53;;;;;;;6.68;4.70;;;;;;;24.44;89.27;98593.34;5030753;27;102659;-64
2023/08/18 01:46:21;;;;;;;5.68;4.43;;;;;;;24.07;91.69;98595.41;5032063;27;102922;-64
2023/08/18 01:48:49;;;;;;;6.28;4.78;;;;;;;24.25;90.53;98592.22;5036826;27;103985;-64
2023/08/18 01:51:17;;;;;;;4.38;3.97;;;;;;;24.77;88.68;98594.28;5013249;27;104218;-63
2023/08/18 01:53:45;;;;;;;3.10;2.80;;;;;;;25.49;85.71;98596.34;5035815;27;103813;-63
2023/08/18 01:56:15;;;;;;;3.67;3.38;;;;;;;25.67;84.75;98600.06;5038903;27;104016;-63
2023/08/18 01:58:43;;;;;;;4.00;3.20;;;;;;;25.84;84.01;98595.91;5018995;27;104065;-62
2023/08/18 02:01:11;;;;;;;3.72;3.42;;;;;;;25.76;83.98;98596.13;5015342;27;103205;-63
2023/08/18 02:03:39;;;;;;;4.45;3.85;;;;;;;25.64;84.56;98594.25;5015301;27;102651;-62
2023/08/18 02:06:12;;;;;;;5.53;4.50;;;;;;;24.90;87.66;98601.63;5026449;27;102780;-62
2023/08/18 02:08:40;;;;;;;4.03;3.57;;;;;;;25.40;86.32;98586.72;5017590;27;102979;-62
2023/08/18 02:11:07;;;;;;;8.68;4.97;;;;;;;24.21;89.01;98594.47;5036666;27;103510;-62
2023/08/18 02:13:37;;;;;;;4.55;3.97;;;;;;;24.47;89.68;98593.78;5032286;27;102695;-63
2023/08/18 02:16:05;;;;;;;5.22;4.13;;;;;;;24.92;88.02;98583.34;5016953;27;104699;-63
2023/08/18 02:18:33;;;;;;;4.57;3.58;;;;;;;25.34;86.27;98582.97;5034592;27;103198;-62
2023/08/18 02:21:03;;;;;;;3.33;3.08;;;;;;;25.57;85.58;98572.59;5016146;27;104182;-63
2023/08/18 02:23:31;;;;;;;5.82;4.82;;;;;;;24.57;88.34;98580.72;5012862;27;102683;-63
2023/08/18 02:26:03;;;;;;;4.95;4.40;;;;;;;24.47;89.76;98582.13;5033152;27;104083;-66
2023/08/18 02:28:33;;;;;;;5.47;4.82;;;;;;;24.23;90.76;98588.84;5027683;27;103457;-62
2023/08/18 02:31:04;;;;;;;4.40;4.00;;;;;;;24.89;88.83;98572.94;5035636;27;103363;-62
2023/08/18 02:33:34;;;;;;;4.50;3.55;;;;;;;25.35;86.90;98573.81;5020293;27;102783;-62
2023/08/18 02:36:02;;;;;;;3.75;3.45;;;;;;;25.51;85.75;98578.84;5019302;27;102849;-63
2023/08/18 02:38:31;;;;;;;4.82;3.80;;;;;;;25.52;84.70;98580.50;5031382;27;104199;-63
2023/08/18 02:40:59;;;;;;;3.20;2.95;;;;;;;25.65;84.75;98579.69;5032625;27;103258;-62
2023/08/18 02:43:27;;;;;;;3.90;3.33;;;;;;;25.69;84.43;98579.03;5008737;27;102845;-63
2023/08/18 02:45:56;;;;;;;5.35;4.18;;;;;;;25.57;83.53;98572.59;5037700;27;102932;-63
2023/08/18 02:48:27;;;;;;;5.18;4.68;;;;;;;24.76;87.75;98579.94;5033330;27;104056;-62
2023/08/18 02:51:02;;;;;;;4.93;3.70;;;;;;;25.30;86.01;98570.91;5030349;27;104615;-62
2023/08/18 02:53:31;;;;;;;4.15;3.72;;;;;;;25.45;85.04;98566.13;5023958;27;102727;-64
2023/08/18 02:56:02;;;;;;;3.72;3.28;;;;;;;25.59;84.58;98570.53;5026355;27;104406;-64
2023/08/18 02:58:33;;;;;;;4.27;3.77;;;;;;;25.65;84.00;98575.09;5028163;27;104355;-65
2023/08/18 03:01:07;;;;;;;5.97;5.20;;;;;;;24.88;86.14;98566.69;5013069;27;104209;-64
2023/08/18 03:03:36;;;;;;;5.65;5.15;;;;;;;24.01;90.98;98571.06;5018778;27;103092;-64
2023/08/18 03:06:06;;;;;;;4.30;4.00;;;;;;;24.56;90.19;98567.41;5016291;27;103861;-64
2023/08/18 03:08:35;;;;;;;3.58;3.28;;;;;;;25.14;87.64;98566.75;5024110;27;104145;-64
2023/08/18 03:11:04;;;;;;;3.63;3.33;;;;;;;25.40;86.07;98560.53;5009817;27;103481;-64
2023/08/18 03:13:33;;;;;;;4.00;3.60;;;;;;;25.54;85.02;98556.81;5012843;27;102665;-64
2023/08/18 03:16:02;;;;;;;3.55;3.25;;;;;;;25.57;84.97;98550.94;5019290;27;103916;-64
2023/08/18 03:18:31;;;;;;;3.28;2.97;;;;;;;25.67;84.54;98551.38;5007955;27;103635;-65
2023/08/18 03:21:03;;;;;;;5.05;4.20;;;;;;;25.33;84.85;98562.38;5016375;27;105897;-64
2023/08/18 03:23:32;;;;;;;5.75;5.22;;;;;;;23.90;90.72;98560.84;5007156;27;102671;-66
2023/08/18 03:26:01;;;;;;;4.73;4.13;;;;;;;24.41;88.80;98564.03;5008234;27;102960;-65
2023/08/18 03:28:31;;;;;;;4.60;4.20;;;;;;;24.89;86.94;98552.16;5014622;27;106133;-66
2023/08/18 03:31:00;;;;;;;6.70;5.00;;;;;;;;;;5012007;27;103200;-64
2023/08/18 03:33:32;;;;;;;6.50;4.47;;;;;;;23.93;89.66;98555.03;5031192;27;102576;-65
2023/08/18 03:36:04;;;;;;;5.28;4.40;;;;;;;24.06;88.87;98557.81;5011721;27;104113;-64
2023/08/18 03:38:32;;;;;;;5.13;4.38;;;;;;;23.87;90.48;98561.22;5014669;27;104371;-64
2023/08/18 03:41:02;;;;;;;5.57;4.43;;;;;;;24.06;88.77;98560.50;5009401;27;104219;-65
2023/08/18 03:43:31;;;;;;;7.27;5.70;;;;;;;22.62;95.34;98562.81;5010623;27;102938;-65
2023/08/18 03:46:03;;;;;;;6.45;5.32;;;;;;;23.12;94.83;98567.28;5038056;27;104263;-64
2023/08/18 03:48:32;;;;;;;6.10;5.50;;;;;;;22.81;95.44;98564.91;5011686;27;103335;-65
2023/08/18 03:50:59;;;;;;;8.45;5.45;;;;;;;22.79;96.37;98561.53;4994248;27;104265;-65
2023/08/18 03:53:29;;;;;;;6.85;5.40;;;;;;;23.13;94.93;98558.13;5009323;27;102739;-64
2023/08/18 03:55:59;;;;;;;6.85;5.43;;;;;;;23.20;93.52;98559.06;5008418;27;104148;-65
2023/08/18 03:58:27;;;;;;;5.45;4.95;;;;;;;23.24;93.75;98559.50;5031367;27;104392;-65
2023/08/18 04:01:01;;;;;;;5.20;4.73;;;;;;;23.72;91.47;98563.22;5018882;27;104144;-65
2023/08/18 04:03:30;;;;;;;5.30;4.60;;;;;;;23.61;92.29;98562.72;5019248;27;102771;-65
2023/08/18 04:05:58;;;;;;;5.75;4.80;;;;;;;23.75;91.67;98554.75;5036735;27;102888;-64
2023/08/18 04:08:26;;;;;;;6.25;4.85;;;;;;;23.91;90.04;98557.13;5034699;27;104037;-65
2023/08/18 04:10:55;;;;;;;5.23;4.60;;;;;;;24.31;88.99;98563.59;5015655;27;103264;-63
2023/08/18 04:13:23;;;;;;;6.07;4.97;;;;;;;23.63;89.85;98568.75;5015391;27;102763;-65
2023/08/18 04:15:52;;;;;;;5.90;5.18;;;;;;;23.67;90.40;98555.72;5010270;27;104079;-65
2023/08/18 04:18:20;;;;;;;6.70;5.43;;;;;;;23.16;92.35;98559.66;5009602;27;103416;-65
2023/08/18 04:20:48;;;;;;;5.65;5.05;;;;;;;23.16;94.16;98556.94;5030170;27;103251;-65
2023/08/18 04:23:17;;;;;;;5.80;5.20;;;;;;;23.39;92.95;98554.88;5018787;27;102968;-65
2023/08/18 04:25:46;;;;;;;4.50;4.10;;;;;;;23.68;91.86;98557.38;5033272;27;104758;-65
2023/08/18 04:28:16;;;;;;;5.68;5.05;;;;;;;23.34;92.46;98557.28;5009563;27;104315;-65
2023/08/18 04:30:46;;;;;;;6.90;6.13;;;;;;;23.43;92.72;98554.31;5014675;27;104405;-65
2023/08/18 04:33:27;;;;;;;6.53;5.35;;;;;;;23.36;91.32;98553.38;5020383;27;102701;-65
2023/08/18 04:35:58;;;;;;;6.18;5.20;;;;;;;23.39;91.67;98571.88;5015275;27;102639;-65
2023/08/18 04:38:30;;;;;;;6.82;5.00;;;;;;;23.51;91.01;98567.63;5036198;27;104121;-65
2023/08/18 04:40:59;;;;;;;6.13;5.43;;;;;;;23.48;90.23;98577.97;5006847;27;104325;-65
2023/08/18 04:43:31;;;;;;;7.70;5.95;;;;;;;23.09;92.69;98578.44;5035520;27;102777;-65
2023/08/18 04:45:59;;;;;;;9.20;6.47;;;;;;;22.43;95.79;98583.06;5014186;27;103785;-65
2023/08/18 04:48:27;;;;;;;8.13;6.77;;;;;;;22.20;98.49;98582.38;5003481;27;103925;-65
2023/08/18 04:50:56;;;;;;;8.80;7.15;;;;;;;22.36;97.89;98587.53;5018472;27;103085;-65
2023/08/18 04:53:24;;;;;;;9.17;7.17;;;;;;;22.57;96.16;98584.03;5012587;27;102677;-65
2023/08/18 04:55:52;;;;;;;6.75;6.05;;;;;;;23.14;95.22;98585.94;5008747;28;104255;-65
2023/08/18 04:58:20;;;;;;;8.90;7.00;;;;;;;22.97;94.36;98593.44;5012579;27;103285;-65
2023/08/18 05:00:50;;;;;;;8.87;6.67;;;;;;;22.99;93.99;98589.50;5006927;27;103253;-65
2023/08/18 05:03:18;;;;;;;9.77;6.75;;;;;;;23.06;94.23;98585.03;5003940;28;103176;-65
2023/08/18 05:06:00;;;;;;;6.93;6.03;;;;;;;23.45;92.91;98584.59;5011387;28;104040;-65
2023/08/18 05:08:28;;;;;;;6.03;5.35;;;;;;;23.53;92.39;98592.53;5012769;27;103870;-63
2023/08/18 05:10:57;;;;;;;5.30;4.80;;;;;;;23.98;90.86;98601.13;5009242;27;104272;-62
2023/08/18 05:13:26;;;;;;;7.47;5.90;;;;;;;23.29;92.27;98595.63;5010829;28;102889;-62
2023/08/18 05:15:56;;;;;;;6.40;5.80;;;;;;;23.29;93.92;98601.00;5008215;27;104417;-69
2023/08/18 05:18:24;;;;;;;8.05;5.93;;;;;;;23.56;93.06;98592.13;5016141;28;103241;-67
2023/08/18 05:20:52;;;;;;;7.63;5.90;;;;;;;23.24;94.25;98590.00;5022820;27;103186;-67
2023/08/18 05:23:21;;;;;;;5.97;5.30;;;;;;;23.08;96.23;98591.06;5019772;28;102981;-67
2023/08/18 05:25:53;;;;;;;5.23;4.73;;;;;;;23.76;93.42;98596.84;5018605;27;102847;-66
2023/08/18 05:32:47;;;;;;;6.68;6.07;;;;;;;23.35;94.00;98594.84;5022294;28;103290;-66
2023/08/18 05:35:15;;;;;;;5.30;4.80;;;;;;;24.05;92.16;98593.94;5022822;28;102806;-66
2023/08/18 05:37:43;;;;;;;4.60;4.10;;;;;;;24.69;89.15;98600.69;5020018;28;103844;-67
2023/08/18 05:40:12;;;;;;;6.57;5.60;;;;;;;24.91;87.89;98595.16;5018821;28;104260;-67
2023/08/18 05:42:40;;;;;;;5.25;4.75;;;;;;;25.01;87.31;98599.13;5024287;28;103260;-68
2023/08/18 05:45:09;;;;;;;7.53;6.25;;;;;;;24.59;88.00;98597.53;5020266;27;103011;-67
2023/08/18 05:47:36;;;;;;;4.90;4.50;;;;;;;25.28;86.45;98595.47;5024998;27;102723;-68
2023/08/18 05:50:08;;;;;;;7.83;5.90;;;;;;;25.21;85.76;98589.19;5025589;27;103482;-67
2023/08/18 05:52:35;;;;;;;5.32;4.82;;;;;;;25.31;86.55;98595.03;5018478;28;103387;-68
2023/08/18 05:55:23;;;;;;;7.88;5.90;;;;;;;25.20;86.88;98598.38;4993066;28;102759;-68
2023/08/18 05:57:52;;;;;;;7.38;5.82;;;;;;;25.45;85.73;98606.69;5022369;28;103724;-68
2023/08/18 06:00:20;;;;;;;4.77;4.33;;;;;;;25.96;84.74;98597.94;5020989;27;103360;-68
2023/08/18 06:02:48;;;;;;;4.93;4.43;;;;;;;25.98;83.60;98595.84;5024965;27;103233;-68
2023/08/18 06:09:34;;;;;;;4.97;4.32;;;;;;;26.43;81.81;98603.91;5018213;28;102693;-68
2023/08/18 06:16:27;;;;;;;5.00;4.50;;;;;;;26.35;81.03;98606.84;5023030;28;103023;-67
2023/08/18 06:18:55;;;;;;;5.28;3.83;;;;;;;26.36;81.04;98610.34;5026255;27;102656;-67
2023/08/18 06:21:23;;;;;;;5.33;3.53;;;;;;;26.55;80.61;98608.66;5028714;27;102959;-68
2023/08/18 06:28:06;;;;;;;5.70;3.80;;;;;;;26.25;80.13;98613.72;5021579;28;103099;-68
2023/08/18 06:35:00;;;;;;;6.75;5.93;;;;;;;26.82;78.00;98611.03;5024657;28;104530;-68
2023/08/18 06:37:28;;;;;;;5.47;4.20;;;;;;;26.94;76.82;98614.75;5022701;27;103473;-68
2023/08/18 06:39:56;;;;;;;6.33;4.07;;;;;;;27.01;76.81;98620.94;5027974;28;103203;-69
2023/08/18 06:42:24;;;;;;;3.93;2.90;;;;;;;27.41;76.16;98626.97;5031758;27;103144;-68
2023/08/18 06:44:54;;;;;;;5.15;3.80;;;;;;;26.47;79.23;98625.97;5021805;28;104019;-69
2023/08/18 06:47:22;;;;;;;3.50;2.92;;;;;;;27.24;77.93;98630.41;5027186;28;104079;-69
2023/08/18 06:49:50;;;;;;;4.00;2.92;;;;;;;27.74;75.76;98626.72;5021471;27;103212;-68
2023/08/18 06:52:18;;;;;;;4.50;3.50;;;;;;;27.88;74.39;98625.53;5025395;28;102872;-68
2023/08/18 06:54:47;;;;;;;3.85;2.92;;;;;;;28.05;74.33;98628.53;5025870;28;103737;-69
2023/08/18 06:57:16;;;;;;;3.33;2.80;;;;;;;27.99;74.53;98632.13;5024481;27;103207;-69
2023/08/18 06:59:44;;;;;;;4.50;3.10;;;;;;;28.11;73.96;98628.47;5023397;28;104135;-69
2023/08/18 07:02:13;;;;;;;4.47;2.90;;;;;;;28.63;72.14;98637.16;5016149;28;102792;-69
2023/08/18 07:04:41;;;;;;;3.80;2.90;;;;;;;28.77;71.03;98634.00;5019380;27;103046;-68
2023/08/18 07:07:09;;;;;;;3.42;3.13;;;;;;;28.79;71.13;98631.09;5016969;27;104329;-68
2023/08/18 07:09:37;;;;;;;5.00;3.13;;;;;;;28.43;72.09;98625.66;5018126;27;103252;-68
2023/08/18 07:12:06;;;;;;;5.53;3.33;;;;;;;28.62;71.45;98619.13;5018528;28;102604;-69
2023/08/18 07:14:42;;;;;;;3.45;2.97;;;;;;;28.73;70.43;98627.38;5017912;27;104269;-69
2023/08/18 07:17:10;;;;;;;4.00;3.30;;;;;;;28.23;73.82;98627.75;5023334;27;104359;-68
2023/08/18 07:19:39;;;;;;;3.90;3.25;;;;;;;28.85;70.84;98632.88;5013475;27;102954;-68
2023/08/18 07:22:07;;;;;;;3.60;2.78;;;;;;;29.21;69.91;98630.09;5019623;27;102665;-69
2023/08/18 07:24:35;;;;;;;5.18;3.63;;;;;;;28.64;70.19;98617.88;5020026;27;103980;-69
2023/08/18 07:27:04;;;;;;;4.37;3.33;;;;;;;28.79;70.02;98630.25;5023507;27;103537;-69
2023/08/18 07:29:33;;;;;;;3.10;2.70;;;;;;;29.52;68.08;98626.28;5022315;27;103328;-69
2023/08/18 07:32:02;;;;;;;4.75;3.03;;;;;;;29.94;66.43;98618.91;5015051;27;102865;-59
2023/08/18 07:34:30;;;;;;;6.70;3.25;;;;;;;30.04;66.45;98619.13;5025252;27;103033;-60
2023/08/18 07:36:59;;;;;;;5.07;3.00;;;;;;;30.06;65.34;98624.34;5016543;27;104768;-59
2023/08/18 07:39:27;;;;;;;4.63;3.10;;;;;;;30.25;64.22;98629.44;5019650;27;103293;-60
2023/08/18 07:41:55;;;;;;;5.07;2.78;;;;;;;30.61;62.45;98630.22;5017193;27;103062;-59
2023/08/18 07:44:26;;;;;;;5.05;2.65;;;;;;;30.79;62.00;98632.81;5015787;27;103145;-64
2023/08/18 07:46:54;;;;;;;4.07;2.85;;;;;;;30.74;62.39;98629.94;5017187;27;103977;-63
2023/08/18 07:49:22;;;;;;;3.88;2.78;;;;;;;31.03;60.25;98634.41;5019223;27;102690;-63
2023/08/18 07:51:50;;;;;;;3.30;2.67;;;;;;;31.45;59.80;98633.00;5013601;27;102970;-59
2023/08/18 07:54:20;;;;;;;3.20;2.35;;;;;;;32.04;58.14;98630.75;5026724;27;103026;-60
2023/08/18 07:56:47;;;;;;;6.95;3.15;;;;;;;30.44;59.78;98632.88;5016198;27;104498;-63
2023/08/18 07:59:18;;;;;;;4.50;2.50;;;;;;;31.48;59.93;98643.47;5019704;27;103245;-63
2023/08/18 08:01:46;;;;;;;3.60;2.40;;;;;;;32.21;57.50;98636.19;5016558;27;102839;-60
2023/08/18 08:04:14;;;;;;;3.80;2.40;;;;;;;30.85;60.76;98631.84;5021153;27;104054;-60
2023/08/18 08:06:42;;;;;;;4.00;2.25;;;;;;;32.61;57.68;98631.31;5016346;27;104184;-59
2023/08/18 08:09:11;;;;;;;5.13;2.70;;;;;;;31.97;57.48;98633.63;5010329;27;104177;-58
2023/08/18 08:11:40;;;;;;;7.73;2.87;;;;;;;32.14;57.06;98626.25;5022076;27;102806;-62
2023/08/18 08:14:08;;;;;;;6.97;2.97;;;;;;;32.22;56.36;98638.69;5013640;28;104312;-60
2023/08/18 08:16:36;;;;;;;3.00;2.27;;;;;;;33.02;55.99;98632.63;5012425;27;105093;-58
2023/08/18 08:19:05;;;;;;;6.03;3.90;;;;;;;33.29;54.52;98628.03;5015504;27;103165;-59
2023/08/18 08:21:41;;;;;;;5.55;3.78;;;;;;;34.08;53.51;98633.72;5024297;27;102727;-60
2023/08/18 08:24:09;;;;;;;12.13;5.07;;;;;;;34.30;52.52;98626.16;5023225;27;102817;-61
2023/08/18 08:26:37;;;;;;;3.42;2.30;;;;;;;34.47;51.76;98624.06;5019895;27;103536;-58
2023/08/18 08:29:07;;;;;;;9.48;3.15;;;;;;;34.79;51.80;98621.22;5011029;27;103237;-59
2023/08/18 08:31:38;;;;;;;26.77;4.67;;;;;;;35.14;50.10;98623.28;5024751;27;103053;-59
2023/08/18 08:34:09;;;;;;;3.10;2.50;;;;;;;34.48;49.14;98622.13;5017545;27;104185;-60
2023/08/18 08:36:39;;;;;;;5.03;2.58;;;;;;;34.76;50.06;98611.59;5018271;27;103284;-60
2023/08/18 08:39:09;;;;;;;4.85;2.50;;;;;;;34.73;49.48;98612.13;5012988;27;105199;-61
2023/08/18 08:41:39;;;;;;;3.72;2.63;;;;;;;34.90;50.52;98614.66;5017185;27;103035;-60
2023/08/18 08:44:13;;;;;;;4.00;2.20;;;;;;;34.70;49.91;98606.34;5021702;27;104007;-61
2023/08/18 08:46:42;;;;;;;4.28;2.50;;;;;;;34.78;49.65;98614.91;5015006;27;103972;-60
2023/08/18 08:49:13;;;;;;;4.53;2.20;;;;;;;35.92;49.73;98605.50;5015252;27;103100;-60
2023/08/18 08:51:46;;;;;;;3.60;2.40;;;;;;;35.08;48.64;98605.97;5015385;28;102994;-60
2023/08/18 08:54:19;;;;;;;3.13;2.30;;;;;;;35.80;48.73;98610.47;5009824;27;103581;-61
2023/08/18 08:56:50;;;;;;;5.10;2.50;;;;;;;36.00;47.68;98611.28;5018954;27;104171;-61
2023/08/18 08:59:20;;;;;;;2.42;2.20;;;;;;;36.56;47.46;98608.44;4996696;28;104221;-61
2023/08/18 09:01:52;;;;;;;3.10;2.40;;;;;;;36.50;46.30;98606.81;5020279;27;102762;-61
2023/08/18 09:04:21;;;;;;;3.40;2.40;;;;;;;37.04;46.90;98604.94;4996901;27;104306;-62
2023/08/18 09:06:49;;;;;;;2.80;2.00;;;;;;;38.26;44.73;98611.13;4992267;28;103298;-60
2023/08/18 09:09:18;;;;;;;1.65;1.50;;;;;;;39.26;44.43;98601.94;4996342;27;104261;-63
2023/08/18 09:12:05;;;;;;;2.50;1.90;;;;;;;39.71;44.17;98601.25;5014244;27;103192;-62
2023/08/18 09:14:36;;;;;;;3.13;2.00;;;;;;;38.30;43.74;98601.19;5002628;28;104296;-60
2023/08/18 09:17:05;;;;;;;3.25;2.13;;;;;;;37.05;44.38;98598.34;4998351;27;104083;-61
2023/08/18 09:19:34;;;;;;;5.67;2.43;;;;;;;36.31;44.89;98598.31;5008556;27;103225;-61
2023/08/18 09:22:04;;;;;;;4.10;1.95;;;;;;;37.05;45.41;98605.78;5013827;27;103032;-61
2023/08/18 09:24:33;;;;;;;2.92;1.98;;;;;;;37.83;43.29;98606.59;4991187;27;103313;-60
2023/08/18 09:27:10;;;;;;;3.45;2.20;;;;;;;38.15;42.40;98604.09;5008657;27;103284;-61
2023/08/18 09:29:44;;;;;;;3.75;1.90;;;;;;;37.18;42.82;98605.97;5014001;27;103243;-61
2023/08/18 09:32:12;;;;;;;3.00;1.57;;;;;;;37.80;42.88;98601.66;5011408;27;102764;-61
2023/08/18 09:34:44;;;;;;;2.35;2.00;;;;;;;38.09;45.39;98605.28;5006294;27;104283;-61
2023/08/18 09:37:12;;;;;;;2.70;2.05;;;;;;;36.08;44.40;98609.06;5008735;27;104289;-61
2023/08/18 09:39:53;;;;;;;4.53;2.15;;;;;;;36.69;44.66;98607.81;5017580;27;103691;-61
2023/08/18 09:42:22;;;;;;;5.50;2.30;;;;;;;37.85;44.52;98598.84;5017263;27;102714;-61
2023/08/18 09:44:58;;;;;;;2.93;2.10;;;;;;;37.24;43.61;98597.66;5014116;27;104096;-61
2023/08/18 09:47:31;;;;;;;4.63;2.00;;;;;;;37.75;43.87;98593.44;5014692;27;104086;-61
2023/08/18 09:50:07;;;;;;;4.37;2.20;;;;;;;38.74;43.00;98594.63;5014680;27;103350;-61
2023/08/18 09:52:38;;;;;;;5.07;2.20;;;;;;;39.22;42.18;98593.44;5012932;27;102921;-61
2023/08/18 09:55:12;;;;;;;4.15;2.30;;;;;;;38.33;42.26;98588.75;5018005;27;104026;-61
2023/08/18 09:57:50;;;;;;;4.32;2.75;;;;;;;37.00;43.54;98592.84;5015778;27;103815;-61
2023/08/18 10:00:21;;;;;;;3.83;2.13;;;;;;;37.48;42.94;98582.91;5014764;27;103192;-61
2023/08/18 10:02:55;;;;;;;5.97;2.38;;;;;;;37.04;44.45;98582.91;4993806;28;102831;-61
2023/08/18 10:05:24;;;;;;;2.90;2.10;;;;;;;39.20;43.33;98583.78;4998262;27;103644;-61
2023/08/18 10:07:53;;;;;;;4.18;2.40;;;;;;;39.18;42.28;98578.56;5015232;27;103433;-61
2023/08/18 10:10:22;;;;;;;3.20;2.35;;;;;;;39.66;43.16;98583.94;5013773;27;103551;-61
2023/08/18 10:12:54;;;;;;;3.53;2.25;;;;;;;36.00;45.82;98591.19;4997339;27;102956;-62
2023/08/18 10:15:29;;;;;;;4.23;2.10;;;;;;;38.63;45.23;98582.03;5006520;27;102802;-61
2023/08/18 10:17:58;;;;;;;3.80;2.40;;;;;;;38.33;44.80;98582.41;5007539;27;104509;-61
2023/08/18 10:20:28;;;;;;;2.88;2.00;;;;;;;38.49;44.82;98578.34;5011596;27;103722;-61
2023/08/18 10:22:58;;;;;;;2.72;2.20;;;;;;;39.11;42.31;98578.09;4996832;27;102748;-61
2023/08/18 10:25:29;;;;;;;3.80;2.35;;;;;;;37.65;44.01;98576.97;5006344;27;104152;-62
2023/08/18 10:28:00;;;;;;;4.32;2.50;;;;;;;38.71;42.99;98562.88;5013885;27;103123;-61
2023/08/18 10:30:31;;;;;;;4.45;2.25;;;;;;;39.24;43.93;98571.88;5007884;27;103174;-61
2023/08/18 10:33:10;;;;;;;2.38;2.17;;;;;;;39.45;42.58;98566.00;5021919;27;102939;-61
2023/08/18 10:35:48;;;;;;;3.13;2.05;;;;;;;39.01;42.19;98561.69;5005829;27;103854;-61
2023/08/18 10:38:17;;;;;;;3.20;2.30;;;;;;;39.12;43.07;98562.34;4992176;27;104040;-61
2023/08/18 10:40:45;;;;;;;2.80;1.92;;;;;;;39.90;41.03;98562.50;5008722;27;103233;-62
2023/08/18 10:43:15;;;;;;;2.67;2.10;;;;;;;39.68;43.21;98559.56;5017148;27;103274;-61
2023/08/18 10:45:53;;;;;;;4.82;2.60;;;;;;;39.45;42.62;98560.47;4999014;28;102989;-61
2023/08/18 10:48:24;;;;;;;2.88;2.45;;;;;;;39.17;43.08;98554.81;5019611;28;103076;-61
2023/08/18 10:50:52;;;;;;;4.72;2.13;;;;;;;38.67;43.74;98561.03;5017177;28;102976;-62
2023/08/18 10:53:21;;;;;;;4.57;2.40;;;;;;;38.51;43.36;98554.06;5006686;27;102844;-62
2023/08/18 10:55:53;;;;;;;4.43;2.20;;;;;;;38.88;42.22;98545.84;5015057;27;102931;-61
2023/08/18 10:58:23;;;;;;;3.70;2.22;;;;;;;36.69;44.98;98544.53;5013990;27;103283;-61
2023/08/18 11:00:53;;;;;;;2.90;2.10;;;;;;;39.04;43.50;98538.19;5013826;27;103155;-61
2023/08/18 11:03:23;;;;;;;3.42;2.08;;;;;;;39.59;43.08;98544.75;5015283;28;102963;-61
2023/08/18 11:05:52;;;;;;;3.72;2.20;;;;;;;40.20;41.55;98537.03;5016847;27;103121;-62
2023/08/18 11:08:21;;;;;;;3.42;2.22;;;;;;;39.61;41.67;98535.03;5017373;27;103953;-62
2023/08/18 11:10:49;;;;;;;3.78;2.20;;;;;;;39.83;41.27;98531.66;5015867;27;104346;-62
2023/08/18 11:13:26;;;;;;;3.63;2.30;;;;;;;37.83;43.61;98534.09;5019182;28;103744;-61
2023/08/18 11:15:57;;;;;;;3.00;2.30;;;;;;;37.74;45.23;98526.47;5022193;28;103966;-62
2023/08/18 11:18:26;;;;;;;3.15;2.08;;;;;;;36.30;45.34;98519.66;4998600;28;103459;-60
2023/08/18 11:20:58;;;;;;;3.38;2.15;;;;;;;36.35;46.28;98525.13;5019938;27;103450;-62
2023/08/18 11:23:27;;;;;;;3.95;2.28;;;;;;;38.33;43.24;98514.28;5016562;27;102702;-62
2023/08/18 11:25:59;;;;;;;3.95;2.42;;;;;;;37.64;43.16;98510.00;5020614;28;102755;-63
2023/08/18 11:28:27;;;;;;;4.25;1.95;;;;;;;39.40;41.89;98509.72;5016529;28;103223;-62
2023/08/18 11:30:57;;;;;;;3.10;1.80;;;;;;;40.57;39.77;98508.34;5017246;27;103501;-62
2023/08/18 11:33:26;;;;;;;3.75;2.00;;;;;;;40.11;39.34;98504.88;5019376;27;103007;-62
2023/08/18 11:35:55;;;;;;;3.90;2.20;;;;;;;38.32;41.10;98503.53;5017520;27;102837;-62
2023/08/18 11:38:24;;;;;;;2.30;1.90;;;;;;;39.65;40.67;98504.91;5000693;28;103753;-62
2023/08/18 11:40:53;;;;;;;3.55;1.85;;;;;;;41.01;40.46;98513.22;5017792;28;103580;-62
2023/08/18 11:43:23;;;;;;;3.83;1.85;;;;;;;38.98;40.08;98504.31;5012325;27;103048;-63
2023/08/18 11:45:52;;;;;;;3.03;2.00;;;;;;;37.96;43.60;98501.19;5011772;27;102945;-64
2023/08/18 11:48:23;;;;;;;3.85;2.05;;;;;;;37.53;43.21;98497.44;5010733;27;103292;-62
2023/08/18 11:50:59;;;;;;;3.17;1.85;;;;;;;40.05;40.48;98490.31;4984752;27;103222;-62
2023/08/18 11:53:29;;;;;;;3.10;1.90;;;;;;;40.81;38.46;98492.31;5008592;27;102821;-63
2023/08/18 11:55:58;;;;;;;3.77;1.90;;;;;;;37.51;40.09;98490.59;5003994;27;104191;-62
2023/08/18 11:58:28;;;;;;;5.40;1.90;;;;;;;40.09;38.76;98493.31;4986846;27;103248;-63
2023/08/18 12:00:58;;;;;;;2.97;2.08;;;;;;;41.32;37.49;98486.44;4993814;27;103194;-63